sensor_id;sensor_type;location;lat;lon;timestamp;P1;durP1;ratioP1;P2;durP2;ratioP2
36827;SDS011;22766;48.042;11.192;2023-01-19T00:00:50;4.93;;;3.08;;
36827;SDS011;22766;48.042;11.192;2023-01-19T00:03:16;11.38;;;3.42;;
36827;SDS011;22766;48.042;11.192;2023-01-19T00:05:43;6.18;;;2.95;;
36827;SDS011;22766;48.042;11.192;2023-01-19T00:08:11;6.95;;;2.80;;
36827;SDS011;22766;48.042;11.192;2023-01-19T00:10:42;3.50;;;2.20;;
36827;SDS011;22766;48.042;11.192;2023-01-19T00:13:13;4.97;;;3.30;;
36827;SDS011;22766;48.042;11.192;2023-01-19T00:15:40;4.85;;;2.92;;
36827;SDS011;22766;48.042;11.192;2023-01-19T00:18:07;6.55;;;2.70;;
36827;SDS011;22766;48.042;11.192;2023-01-19T00:20:36;5.35;;;2.45;;
36827;SDS011;22766;48.042;11.192;2023-01-19T00:23:03;5.45;;;2.88;;
36827;SDS011;22766;48.042;11.192;2023-01-19T00:25:30;4.45;;;2.92;;
36827;SDS011;22766;48.042;11.192;2023-01-19T00:27:57;4.47;;;2.85;;
36827;SDS011;22766;48.042;11.192;2023-01-19T00:30:27;5.85;;;2.95;;
36827;SDS011;22766;48.042;11.192;2023-01-19T00:32:54;5.88;;;2.53;;
36827;SDS011;22766;48.042;11.192;2023-01-19T00:35:20;6.82;;;2.92;;
36827;SDS011;22766;48.042;11.192;2023-01-19T00:37:47;5.75;;;2.65;;
36827;SDS011;22766;48.042;11.192;2023-01-19T00:40:14;6.78;;;2.72;;
36827;SDS011;22766;48.042;11.192;2023-01-19T00:42:40;3.75;;;2.40;;
36827;SDS011;22766;48.042;11.192;2023-01-19T00:45:11;2.88;;;1.98;;
36827;SDS011;22766;48.042;11.192;2023-01-19T00:47:39;5.50;;;2.63;;
36827;SDS011;22766;48.042;11.192;2023-01-19T00:50:06;9.10;;;2.55;;
36827;SDS011;22766;48.042;11.192;2023-01-19T00:52:40;5.47;;;2.75;;
36827;SDS011;22766;48.042;11.192;2023-01-19T00:55:07;4.22;;;2.60;;
36827;SDS011;22766;48.042;11.192;2023-01-19T00:57:36;4.50;;;2.17;;
36827;SDS011;22766;48.042;11.192;2023-01-19T01:00:04;5.82;;;2.50;;
36827;SDS011;22766;48.042;11.192;2023-01-19T01:02:34;4.78;;;2.53;;
36827;SDS011;22766;48.042;11.192;2023-01-19T01:05:02;10.27;;;2.83;;
36827;SDS011;22766;48.042;11.192;2023-01-19T01:07:32;4.97;;;3.05;;
36827;SDS011;22766;48.042;11.192;2023-01-19T01:10:12;3.05;;;2.25;;
36827;SDS011;22766;48.042;11.192;2023-01-19T01:12:47;5.65;;;2.53;;
36827;SDS011;22766;48.042;11.192;2023-01-19T01:15:25;4.63;;;2.60;;
36827;SDS011;22766;48.042;11.192;2023-01-19T01:17:53;3.95;;;2.70;;
36827;SDS011;22766;48.042;11.192;2023-01-19T01:20:21;5.15;;;3.40;;
36827;SDS011;22766;48.042;11.192;2023-01-19T01:22:51;4.75;;;2.47;;
36827;SDS011;22766;48.042;11.192;2023-01-19T01:25:19;3.40;;;1.98;;
36827;SDS011;22766;48.042;11.192;2023-01-19T01:27:48;3.47;;;1.92;;
36827;SDS011;22766;48.042;11.192;2023-01-19T01:30:15;4.70;;;2.38;;
36827;SDS011;22766;48.042;11.192;2023-01-19T01:32:44;3.88;;;2.53;;
36827;SDS011;22766;48.042;11.192;2023-01-19T01:35:11;3.80;;;2.72;;
36827;SDS011;22766;48.042;11.192;2023-01-19T01:37:38;5.82;;;1.90;;
36827;SDS011;22766;48.042;11.192;2023-01-19T01:40:05;2.78;;;2.22;;
36827;SDS011;22766;48.042;11.192;2023-01-19T01:42:33;2.78;;;2.08;;
36827;SDS011;22766;48.042;11.192;2023-01-19T01:45:03;3.47;;;2.38;;
36827;SDS011;22766;48.042;11.192;2023-01-19T01:52:49;4.68;;;2.55;;
36827;SDS011;22766;48.042;11.192;2023-01-19T01:55:33;8.88;;;2.92;;
36827;SDS011;22766;48.042;11.192;2023-01-19T01:58:04;3.22;;;2.17;;
36827;SDS011;22766;48.042;11.192;2023-01-19T02:00:33;4.25;;;3.10;;
36827;SDS011;22766;48.042;11.192;2023-01-19T02:03:20;5.07;;;3.20;;
36827;SDS011;22766;48.042;11.192;2023-01-19T02:05:49;4.95;;;2.90;;
36827;SDS011;22766;48.042;11.192;2023-01-19T02:08:19;3.58;;;2.75;;
36827;SDS011;22766;48.042;11.192;2023-01-19T02:11:10;3.45;;;2.38;;
36827;SDS011;22766;48.042;11.192;2023-01-19T02:13:55;6.68;;;3.30;;
36827;SDS011;22766;48.042;11.192;2023-01-19T02:16:22;5.07;;;2.58;;
36827;SDS011;22766;48.042;11.192;2023-01-19T02:18:49;4.72;;;3.30;;
36827;SDS011;22766;48.042;11.192;2023-01-19T02:21:35;8.68;;;2.33;;
36827;SDS011;22766;48.042;11.192;2023-01-19T02:24:11;3.28;;;2.90;;
36827;SDS011;22766;48.042;11.192;2023-01-19T02:26:39;8.25;;;3.10;;
36827;SDS011;22766;48.042;11.192;2023-01-19T02:29:13;4.57;;;2.90;;
36827;SDS011;22766;48.042;11.192;2023-01-19T02:31:42;4.72;;;2.65;;
36827;SDS011;22766;48.042;11.192;2023-01-19T02:34:14;8.25;;;4.00;;
36827;SDS011;22766;48.042;11.192;2023-01-19T02:36:52;9.57;;;4.15;;
36827;SDS011;22766;48.042;11.192;2023-01-19T02:41:59;5.68;;;3.30;;
36827;SDS011;22766;48.042;11.192;2023-01-19T02:44:29;8.27;;;3.25;;
36827;SDS011;22766;48.042;11.192;2023-01-19T02:46:58;5.90;;;3.40;;
36827;SDS011;22766;48.042;11.192;2023-01-19T02:49:27;5.55;;;3.35;;
36827;SDS011;22766;48.042;11.192;2023-01-19T02:51:55;6.50;;;3.38;;
36827;SDS011;22766;48.042;11.192;2023-01-19T03:02:42;7.95;;;4.30;;
36827;SDS011;22766;48.042;11.192;2023-01-19T03:11:08;4.40;;;3.37;;
36827;SDS011;22766;48.042;11.192;2023-01-19T03:13:50;5.63;;;3.22;;
36827;SDS011;22766;48.042;11.192;2023-01-19T03:16:20;7.38;;;3.53;;
36827;SDS011;22766;48.042;11.192;2023-01-19T03:19:18;5.50;;;3.10;;
36827;SDS011;22766;48.042;11.192;2023-01-19T03:21:49;7.18;;;3.38;;
36827;SDS011;22766;48.042;11.192;2023-01-19T03:24:19;6.70;;;3.83;;
36827;SDS011;22766;48.042;11.192;2023-01-19T03:26:48;4.93;;;3.17;;
36827;SDS011;22766;48.042;11.192;2023-01-19T03:29:25;5.10;;;3.80;;
36827;SDS011;22766;48.042;11.192;2023-01-19T03:31:55;6.32;;;3.53;;
36827;SDS011;22766;48.042;11.192;2023-01-19T03:34:26;7.40;;;4.67;;
36827;SDS011;22766;48.042;11.192;2023-01-19T03:36:56;5.43;;;3.88;;
36827;SDS011;22766;48.042;11.192;2023-01-19T03:39:27;11.73;;;3.97;;
36827;SDS011;22766;48.042;11.192;2023-01-19T03:41:56;5.78;;;3.53;;
36827;SDS011;22766;48.042;11.192;2023-01-19T03:44:27;7.72;;;3.90;;
36827;SDS011;22766;48.042;11.192;2023-01-19T03:46:55;10.77;;;4.43;;
36827;SDS011;22766;48.042;11.192;2023-01-19T03:49:24;7.15;;;4.13;;
36827;SDS011;22766;48.042;11.192;2023-01-19T03:51:54;6.25;;;3.22;;
36827;SDS011;22766;48.042;11.192;2023-01-19T03:54:21;7.68;;;3.70;;
36827;SDS011;22766;48.042;11.192;2023-01-19T03:56:48;7.90;;;3.67;;
36827;SDS011;22766;48.042;11.192;2023-01-19T03:59:14;8.65;;;4.15;;
36827;SDS011;22766;48.042;11.192;2023-01-19T04:01:42;10.38;;;3.90;;
36827;SDS011;22766;48.042;11.192;2023-01-19T04:04:09;7.97;;;3.58;;
36827;SDS011;22766;48.042;11.192;2023-01-19T04:06:36;8.55;;;4.03;;
36827;SDS011;22766;48.042;11.192;2023-01-19T04:09:03;6.18;;;4.18;;
36827;SDS011;22766;48.042;11.192;2023-01-19T04:11:29;7.15;;;3.97;;
36827;SDS011;22766;48.042;11.192;2023-01-19T04:13:56;10.07;;;3.72;;
36827;SDS011;22766;48.042;11.192;2023-01-19T04:16:23;9.25;;;3.63;;
36827;SDS011;22766;48.042;11.192;2023-01-19T04:18:50;8.38;;;3.65;;
36827;SDS011;22766;48.042;11.192;2023-01-19T04:21:17;6.88;;;3.13;;
36827;SDS011;22766;48.042;11.192;2023-01-19T04:23:45;9.15;;;4.00;;
36827;SDS011;22766;48.042;11.192;2023-01-19T04:26:12;4.57;;;3.25;;
36827;SDS011;22766;48.042;11.192;2023-01-19T04:28:39;7.18;;;3.92;;
36827;SDS011;22766;48.042;11.192;2023-01-19T04:31:06;7.72;;;4.18;;
36827;SDS011;22766;48.042;11.192;2023-01-19T04:33:33;10.35;;;4.38;;
36827;SDS011;22766;48.042;11.192;2023-01-19T04:36:00;6.13;;;3.58;;
36827;SDS011;22766;48.042;11.192;2023-01-19T04:38:27;7.68;;;4.80;;
36827;SDS011;22766;48.042;11.192;2023-01-19T04:40:54;7.93;;;4.47;;
36827;SDS011;22766;48.042;11.192;2023-01-19T04:43:21;8.75;;;3.72;;
36827;SDS011;22766;48.042;11.192;2023-01-19T04:45:48;6.75;;;4.55;;
36827;SDS011;22766;48.042;11.192;2023-01-19T04:48:16;7.47;;;4.13;;
36827;SDS011;22766;48.042;11.192;2023-01-19T04:50:45;7.00;;;4.65;;
36827;SDS011;22766;48.042;11.192;2023-01-19T04:53:11;6.30;;;3.70;;
36827;SDS011;22766;48.042;11.192;2023-01-19T04:55:39;11.07;;;4.95;;
36827;SDS011;22766;48.042;11.192;2023-01-19T04:58:06;8.48;;;4.53;;
36827;SDS011;22766;48.042;11.192;2023-01-19T05:00:32;6.63;;;4.13;;
36827;SDS011;22766;48.042;11.192;2023-01-19T05:02:59;8.80;;;4.38;;
36827;SDS011;22766;48.042;11.192;2023-01-19T05:05:27;8.85;;;4.50;;
36827;SDS011;22766;48.042;11.192;2023-01-19T05:07:54;7.70;;;4.07;;
36827;SDS011;22766;48.042;11.192;2023-01-19T05:10:21;6.47;;;3.65;;
36827;SDS011;22766;48.042;11.192;2023-01-19T05:12:49;12.68;;;4.75;;
36827;SDS011;22766;48.042;11.192;2023-01-19T05:15:16;8.40;;;4.75;;
36827;SDS011;22766;48.042;11.192;2023-01-19T05:17:43;6.57;;;3.95;;
36827;SDS011;22766;48.042;11.192;2023-01-19T05:20:10;9.38;;;3.90;;
36827;SDS011;22766;48.042;11.192;2023-01-19T05:22:41;7.47;;;4.75;;
36827;SDS011;22766;48.042;11.192;2023-01-19T05:25:08;9.02;;;5.05;;
36827;SDS011;22766;48.042;11.192;2023-01-19T05:27:36;10.38;;;4.95;;
36827;SDS011;22766;48.042;11.192;2023-01-19T05:30:03;16.92;;;4.80;;
36827;SDS011;22766;48.042;11.192;2023-01-19T05:32:31;9.02;;;4.18;;
36827;SDS011;22766;48.042;11.192;2023-01-19T05:34:58;7.15;;;4.00;;
36827;SDS011;22766;48.042;11.192;2023-01-19T05:37:24;7.40;;;3.95;;
36827;SDS011;22766;48.042;11.192;2023-01-19T05:39:51;7.32;;;4.05;;
36827;SDS011;22766;48.042;11.192;2023-01-19T05:42:19;7.13;;;4.22;;
36827;SDS011;22766;48.042;11.192;2023-01-19T05:44:45;8.57;;;4.53;;
36827;SDS011;22766;48.042;11.192;2023-01-19T05:47:12;7.75;;;4.57;;
36827;SDS011;22766;48.042;11.192;2023-01-19T05:49:39;10.52;;;4.35;;
36827;SDS011;22766;48.042;11.192;2023-01-19T05:52:05;9.25;;;4.80;;
36827;SDS011;22766;48.042;11.192;2023-01-19T05:54:32;6.78;;;4.18;;
36827;SDS011;22766;48.042;11.192;2023-01-19T05:56:59;6.80;;;3.72;;
36827;SDS011;22766;48.042;11.192;2023-01-19T05:59:26;7.63;;;3.92;;
36827;SDS011;22766;48.042;11.192;2023-01-19T06:01:52;16.92;;;5.18;;
36827;SDS011;22766;48.042;11.192;2023-01-19T06:04:19;9.82;;;4.80;;
36827;SDS011;22766;48.042;11.192;2023-01-19T06:06:49;8.48;;;4.78;;
36827;SDS011;22766;48.042;11.192;2023-01-19T06:09:16;10.68;;;4.75;;
36827;SDS011;22766;48.042;11.192;2023-01-19T06:11:43;7.60;;;4.47;;
36827;SDS011;22766;48.042;11.192;2023-01-19T06:14:11;11.23;;;5.03;;
36827;SDS011;22766;48.042;11.192;2023-01-19T06:16:38;5.68;;;4.35;;
36827;SDS011;22766;48.042;11.192;2023-01-19T06:19:05;6.00;;;4.82;;
36827;SDS011;22766;48.042;11.192;2023-01-19T06:21:32;10.32;;;4.70;;
36827;SDS011;22766;48.042;11.192;2023-01-19T06:23:59;8.68;;;4.07;;
36827;SDS011;22766;48.042;11.192;2023-01-19T06:26:26;12.52;;;4.93;;
36827;SDS011;22766;48.042;11.192;2023-01-19T06:28:52;10.30;;;3.97;;
36827;SDS011;22766;48.042;11.192;2023-01-19T06:31:19;9.30;;;5.25;;
36827;SDS011;22766;48.042;11.192;2023-01-19T06:33:46;10.65;;;4.68;;
36827;SDS011;22766;48.042;11.192;2023-01-19T06:36:13;8.40;;;4.55;;
36827;SDS011;22766;48.042;11.192;2023-01-19T06:38:39;12.00;;;4.93;;
36827;SDS011;22766;48.042;11.192;2023-01-19T06:41:06;9.48;;;4.70;;
36827;SDS011;22766;48.042;11.192;2023-01-19T06:43:33;7.00;;;3.78;;
36827;SDS011;22766;48.042;11.192;2023-01-19T06:45:59;6.85;;;4.43;;
36827;SDS011;22766;48.042;11.192;2023-01-19T06:48:26;8.57;;;3.67;;
36827;SDS011;22766;48.042;11.192;2023-01-19T06:50:53;11.60;;;5.13;;
36827;SDS011;22766;48.042;11.192;2023-01-19T06:53:21;15.15;;;4.85;;
36827;SDS011;22766;48.042;11.192;2023-01-19T06:55:48;9.30;;;5.20;;
36827;SDS011;22766;48.042;11.192;2023-01-19T06:58:15;10.68;;;4.15;;
36827;SDS011;22766;48.042;11.192;2023-01-19T07:00:41;9.50;;;4.93;;
36827;SDS011;22766;48.042;11.192;2023-01-19T07:03:16;9.32;;;4.97;;
36827;SDS011;22766;48.042;11.192;2023-01-19T07:05:45;9.38;;;5.32;;
36827;SDS011;22766;48.042;11.192;2023-01-19T07:08:12;7.65;;;4.43;;
36827;SDS011;22766;48.042;11.192;2023-01-19T07:10:40;9.35;;;4.80;;
36827;SDS011;22766;48.042;11.192;2023-01-19T07:13:27;16.65;;;5.28;;
36827;SDS011;22766;48.042;11.192;2023-01-19T07:15:54;9.10;;;5.40;;
36827;SDS011;22766;48.042;11.192;2023-01-19T07:18:20;9.77;;;4.20;;
36827;SDS011;22766;48.042;11.192;2023-01-19T07:20:47;7.68;;;4.05;;
36827;SDS011;22766;48.042;11.192;2023-01-19T07:23:14;4.00;;;2.67;;
36827;SDS011;22766;48.042;11.192;2023-01-19T07:25:44;6.70;;;3.97;;
36827;SDS011;22766;48.042;11.192;2023-01-19T07:28:11;9.65;;;3.95;;
36827;SDS011;22766;48.042;11.192;2023-01-19T07:30:44;12.40;;;4.75;;
36827;SDS011;22766;48.042;11.192;2023-01-19T07:33:13;6.63;;;3.65;;
36827;SDS011;22766;48.042;11.192;2023-01-19T07:35:44;5.82;;;3.67;;
36827;SDS011;22766;48.042;11.192;2023-01-19T07:38:12;8.45;;;4.32;;
36827;SDS011;22766;48.042;11.192;2023-01-19T07:40:38;8.20;;;4.20;;
36827;SDS011;22766;48.042;11.192;2023-01-19T07:43:05;9.27;;;4.10;;
36827;SDS011;22766;48.042;11.192;2023-01-19T07:45:32;8.32;;;3.63;;
36827;SDS011;22766;48.042;11.192;2023-01-19T07:47:58;7.57;;;4.20;;
36827;SDS011;22766;48.042;11.192;2023-01-19T07:50:25;7.00;;;3.20;;
36827;SDS011;22766;48.042;11.192;2023-01-19T07:52:54;10.38;;;3.78;;
36827;SDS011;22766;48.042;11.192;2023-01-19T07:55:21;5.68;;;3.60;;
36827;SDS011;22766;48.042;11.192;2023-01-19T07:57:49;9.32;;;4.50;;
36827;SDS011;22766;48.042;11.192;2023-01-19T08:00:17;7.05;;;3.90;;
36827;SDS011;22766;48.042;11.192;2023-01-19T08:02:50;4.47;;;3.25;;
36827;SDS011;22766;48.042;11.192;2023-01-19T08:05:17;8.60;;;4.38;;
36827;SDS011;22766;48.042;11.192;2023-01-19T08:07:45;7.18;;;4.50;;
36827;SDS011;22766;48.042;11.192;2023-01-19T08:10:12;8.13;;;4.77;;
36827;SDS011;22766;48.042;11.192;2023-01-19T08:12:40;7.80;;;3.33;;
36827;SDS011;22766;48.042;11.192;2023-01-19T08:15:08;8.50;;;4.13;;
36827;SDS011;22766;48.042;11.192;2023-01-19T08:17:35;5.35;;;3.95;;
36827;SDS011;22766;48.042;11.192;2023-01-19T08:20:02;7.63;;;3.80;;
36827;SDS011;22766;48.042;11.192;2023-01-19T08:22:30;9.23;;;4.05;;
36827;SDS011;22766;48.042;11.192;2023-01-19T08:24:56;7.50;;;4.03;;
36827;SDS011;22766;48.042;11.192;2023-01-19T08:27:23;5.53;;;3.55;;
36827;SDS011;22766;48.042;11.192;2023-01-19T08:29:50;8.25;;;4.03;;
36827;SDS011;22766;48.042;11.192;2023-01-19T08:32:16;7.65;;;3.95;;
36827;SDS011;22766;48.042;11.192;2023-01-19T08:34:44;6.00;;;3.20;;
36827;SDS011;22766;48.042;11.192;2023-01-19T08:37:11;9.48;;;4.63;;
36827;SDS011;22766;48.042;11.192;2023-01-19T08:39:37;5.00;;;3.50;;
36827;SDS011;22766;48.042;11.192;2023-01-19T08:42:04;5.72;;;3.58;;
36827;SDS011;22766;48.042;11.192;2023-01-19T08:44:31;6.82;;;3.75;;
36827;SDS011;22766;48.042;11.192;2023-01-19T08:46:57;7.72;;;3.13;;
36827;SDS011;22766;48.042;11.192;2023-01-19T08:49:25;9.15;;;4.32;;
36827;SDS011;22766;48.042;11.192;2023-01-19T08:51:52;7.53;;;4.43;;
36827;SDS011;22766;48.042;11.192;2023-01-19T08:54:18;7.30;;;4.00;;
36827;SDS011;22766;48.042;11.192;2023-01-19T08:56:46;7.60;;;3.70;;
36827;SDS011;22766;48.042;11.192;2023-01-19T08:59:13;11.68;;;4.25;;
36827;SDS011;22766;48.042;11.192;2023-01-19T09:01:40;14.63;;;5.82;;
36827;SDS011;22766;48.042;11.192;2023-01-19T09:04:06;10.60;;;4.63;;
36827;SDS011;22766;48.042;11.192;2023-01-19T09:06:33;4.53;;;2.97;;
36827;SDS011;22766;48.042;11.192;2023-01-19T09:09:00;8.93;;;3.20;;
36827;SDS011;22766;48.042;11.192;2023-01-19T09:11:27;7.10;;;3.78;;
36827;SDS011;22766;48.042;11.192;2023-01-19T09:13:53;8.35;;;3.40;;
36827;SDS011;22766;48.042;11.192;2023-01-19T09:16:20;6.63;;;3.90;;
36827;SDS011;22766;48.042;11.192;2023-01-19T09:18:47;9.30;;;3.47;;
36827;SDS011;22766;48.042;11.192;2023-01-19T09:21:13;6.70;;;3.33;;
36827;SDS011;22766;48.042;11.192;2023-01-19T09:23:40;7.90;;;4.05;;
36827;SDS011;22766;48.042;11.192;2023-01-19T09:26:07;7.88;;;3.95;;
36827;SDS011;22766;48.042;11.192;2023-01-19T09:28:33;10.25;;;4.38;;
36827;SDS011;22766;48.042;11.192;2023-01-19T09:31:04;6.90;;;3.60;;
36827;SDS011;22766;48.042;11.192;2023-01-19T09:33:32;6.25;;;4.13;;
36827;SDS011;22766;48.042;11.192;2023-01-19T09:35:59;5.07;;;3.22;;
36827;SDS011;22766;48.042;11.192;2023-01-19T09:38:27;6.38;;;3.28;;
36827;SDS011;22766;48.042;11.192;2023-01-19T09:40:57;5.47;;;3.47;;
36827;SDS011;22766;48.042;11.192;2023-01-19T09:46:01;7.85;;;2.92;;
36827;SDS011;22766;48.042;11.192;2023-01-19T09:48:34;5.95;;;3.08;;
36827;SDS011;22766;48.042;11.192;2023-01-19T09:56:44;9.18;;;3.38;;
36827;SDS011;22766;48.042;11.192;2023-01-19T10:01:49;5.53;;;2.85;;
36827;SDS011;22766;48.042;11.192;2023-01-19T10:04:37;7.38;;;3.22;;
36827;SDS011;22766;48.042;11.192;2023-01-19T10:07:15;6.17;;;3.53;;
36827;SDS011;22766;48.042;11.192;2023-01-19T10:10:13;6.18;;;2.85;;
36827;SDS011;22766;48.042;11.192;2023-01-19T10:15:59;5.50;;;3.00;;
36827;SDS011;22766;48.042;11.192;2023-01-19T10:18:31;6.10;;;3.03;;
36827;SDS011;22766;48.042;11.192;2023-01-19T10:21:13;9.10;;;3.50;;
36827;SDS011;22766;48.042;11.192;2023-01-19T10:23:43;4.70;;;2.80;;
36827;SDS011;22766;48.042;11.192;2023-01-19T10:26:22;9.45;;;4.15;;
36827;SDS011;22766;48.042;11.192;2023-01-19T10:29:05;10.10;;;3.08;;
36827;SDS011;22766;48.042;11.192;2023-01-19T10:31:37;6.07;;;3.05;;
36827;SDS011;22766;48.042;11.192;2023-01-19T10:34:08;5.40;;;3.42;;
36827;SDS011;22766;48.042;11.192;2023-01-19T10:36:48;4.72;;;2.85;;
36827;SDS011;22766;48.042;11.192;2023-01-19T10:39:18;7.68;;;3.63;;
36827;SDS011;22766;48.042;11.192;2023-01-19T10:41:49;6.38;;;3.40;;
36827;SDS011;22766;48.042;11.192;2023-01-19T10:44:22;7.22;;;3.33;;
36827;SDS011;22766;48.042;11.192;2023-01-19T10:46:50;4.80;;;2.88;;
36827;SDS011;22766;48.042;11.192;2023-01-19T10:51:54;5.25;;;2.95;;
36827;SDS011;22766;48.042;11.192;2023-01-19T10:54:22;5.88;;;3.08;;
36827;SDS011;22766;48.042;11.192;2023-01-19T10:56:52;5.65;;;3.10;;
36827;SDS011;22766;48.042;11.192;2023-01-19T10:59:29;5.22;;;2.95;;
36827;SDS011;22766;48.042;11.192;2023-01-19T11:04:57;4.15;;;2.15;;
36827;SDS011;22766;48.042;11.192;2023-01-19T11:07:27;4.47;;;2.47;;
36827;SDS011;22766;48.042;11.192;2023-01-19T11:10:15;8.02;;;3.60;;
36827;SDS011;22766;48.042;11.192;2023-01-19T11:15:23;4.90;;;3.00;;
36827;SDS011;22766;48.042;11.192;2023-01-19T11:17:53;4.95;;;2.78;;
36827;SDS011;22766;48.042;11.192;2023-01-19T11:20:40;6.03;;;2.70;;
36827;SDS011;22766;48.042;11.192;2023-01-19T11:23:34;4.95;;;2.65;;
36827;SDS011;22766;48.042;11.192;2023-01-19T11:26:17;5.13;;;2.67;;
36827;SDS011;22766;48.042;11.192;2023-01-19T11:28:59;4.25;;;2.25;;
36827;SDS011;22766;48.042;11.192;2023-01-19T11:31:29;4.93;;;2.40;;
36827;SDS011;22766;48.042;11.192;2023-01-19T11:34:03;5.13;;;2.50;;
36827;SDS011;22766;48.042;11.192;2023-01-19T11:36:34;3.72;;;2.10;;
36827;SDS011;22766;48.042;11.192;2023-01-19T11:41:37;4.75;;;2.78;;
36827;SDS011;22766;48.042;11.192;2023-01-19T11:44:15;3.88;;;2.28;;
36827;SDS011;22766;48.042;11.192;2023-01-19T11:47:11;2.22;;;1.65;;
36827;SDS011;22766;48.042;11.192;2023-01-19T11:54:58;3.95;;;2.08;;
36827;SDS011;22766;48.042;11.192;2023-01-19T11:57:34;4.20;;;1.98;;
36827;SDS011;22766;48.042;11.192;2023-01-19T12:00:02;7.68;;;2.78;;
36827;SDS011;22766;48.042;11.192;2023-01-19T12:02:41;6.00;;;2.50;;
36827;SDS011;22766;48.042;11.192;2023-01-19T12:05:11;4.75;;;2.55;;
36827;SDS011;22766;48.042;11.192;2023-01-19T12:07:41;2.97;;;1.85;;
36827;SDS011;22766;48.042;11.192;2023-01-19T12:10:24;4.25;;;2.30;;
36827;SDS011;22766;48.042;11.192;2023-01-19T12:12:54;4.88;;;2.17;;
36827;SDS011;22766;48.042;11.192;2023-01-19T12:15:32;2.25;;;1.25;;
36827;SDS011;22766;48.042;11.192;2023-01-19T12:18:01;5.15;;;1.27;;
36827;SDS011;22766;48.042;11.192;2023-01-19T12:28:28;1.58;;;1.00;;
36827;SDS011;22766;48.042;11.192;2023-01-19T12:30:58;1.45;;;0.82;;
36827;SDS011;22766;48.042;11.192;2023-01-19T12:33:31;2.78;;;1.08;;
36827;SDS011;22766;48.042;11.192;2023-01-19T12:36:08;2.47;;;0.68;;
36827;SDS011;22766;48.042;11.192;2023-01-19T12:38:40;2.25;;;0.90;;
36827;SDS011;22766;48.042;11.192;2023-01-19T12:41:21;4.70;;;1.35;;
36827;SDS011;22766;48.042;11.192;2023-01-19T12:46:54;2.70;;;1.00;;
36827;SDS011;22766;48.042;11.192;2023-01-19T13:02:48;2.88;;;1.20;;
36827;SDS011;22766;48.042;11.192;2023-01-19T13:13:31;1.83;;;1.25;;
36827;SDS011;22766;48.042;11.192;2023-01-19T13:18:49;1.73;;;1.20;;
36827;SDS011;22766;48.042;11.192;2023-01-19T13:21:36;2.22;;;1.20;;
36827;SDS011;22766;48.042;11.192;2023-01-19T13:26:37;1.77;;;1.15;;
36827;SDS011;22766;48.042;11.192;2023-01-19T13:29:09;2.47;;;1.30;;
36827;SDS011;22766;48.042;11.192;2023-01-19T13:31:41;3.00;;;1.45;;
36827;SDS011;22766;48.042;11.192;2023-01-19T13:34:16;3.17;;;1.10;;
36827;SDS011;22766;48.042;11.192;2023-01-19T13:36:46;4.32;;;1.30;;
36827;SDS011;22766;48.042;11.192;2023-01-19T13:39:19;3.38;;;1.60;;
36827;SDS011;22766;48.042;11.192;2023-01-19T13:42:11;2.55;;;1.08;;
36827;SDS011;22766;48.042;11.192;2023-01-19T13:44:41;2.08;;;1.27;;
36827;SDS011;22766;48.042;11.192;2023-01-19T13:47:38;2.28;;;1.40;;
36827;SDS011;22766;48.042;11.192;2023-01-19T13:52:44;2.28;;;1.15;;
36827;SDS011;22766;48.042;11.192;2023-01-19T13:55:12;3.72;;;1.45;;
36827;SDS011;22766;48.042;11.192;2023-01-19T13:57:40;3.28;;;1.35;;
36827;SDS011;22766;48.042;11.192;2023-01-19T14:05:25;5.25;;;1.48;;
36827;SDS011;22766;48.042;11.192;2023-01-19T14:10:42;2.55;;;1.38;;
36827;SDS011;22766;48.042;11.192;2023-01-19T14:13:23;2.05;;;1.15;;
36827;SDS011;22766;48.042;11.192;2023-01-19T14:15:52;2.60;;;1.60;;
36827;SDS011;22766;48.042;11.192;2023-01-19T14:29:16;2.60;;;1.58;;
36827;SDS011;22766;48.042;11.192;2023-01-19T14:37:14;2.67;;;1.50;;
36827;SDS011;22766;48.042;11.192;2023-01-19T14:39:46;3.60;;;1.73;;
36827;SDS011;22766;48.042;11.192;2023-01-19T14:42:34;3.15;;;1.55;;
36827;SDS011;22766;48.042;11.192;2023-01-19T14:45:05;3.40;;;1.80;;
36827;SDS011;22766;48.042;11.192;2023-01-19T14:47:41;3.50;;;1.73;;
36827;SDS011;22766;48.042;11.192;2023-01-19T14:52:42;2.75;;;1.45;;
36827;SDS011;22766;48.042;11.192;2023-01-19T14:55:24;2.45;;;1.40;;
36827;SDS011;22766;48.042;11.192;2023-01-19T14:58:15;2.80;;;1.75;;
36827;SDS011;22766;48.042;11.192;2023-01-19T15:00:44;3.08;;;1.80;;
36827;SDS011;22766;48.042;11.192;2023-01-19T15:03:12;2.55;;;1.95;;
36827;SDS011;22766;48.042;11.192;2023-01-19T15:05:40;3.63;;;1.65;;
36827;SDS011;22766;48.042;11.192;2023-01-19T15:08:15;3.42;;;1.80;;
36827;SDS011;22766;48.042;11.192;2023-01-19T15:10:44;4.30;;;2.10;;
36827;SDS011;22766;48.042;11.192;2023-01-19T15:13:16;5.45;;;1.75;;
36827;SDS011;22766;48.042;11.192;2023-01-19T15:15:45;3.70;;;1.55;;
36827;SDS011;22766;48.042;11.192;2023-01-19T15:18:12;2.50;;;1.80;;
36827;SDS011;22766;48.042;11.192;2023-01-19T15:20:41;2.85;;;1.60;;
36827;SDS011;22766;48.042;11.192;2023-01-19T15:23:09;2.65;;;1.85;;
36827;SDS011;22766;48.042;11.192;2023-01-19T15:25:36;4.43;;;1.85;;
36827;SDS011;22766;48.042;11.192;2023-01-19T15:28:10;2.28;;;1.38;;
36827;SDS011;22766;48.042;11.192;2023-01-19T15:33:05;3.35;;;1.60;;
36827;SDS011;22766;48.042;11.192;2023-01-19T15:35:31;1.20;;;1.10;;
36827;SDS011;22766;48.042;11.192;2023-01-19T15:37:58;5.40;;;1.70;;
36827;SDS011;22766;48.042;11.192;2023-01-19T15:40:24;2.53;;;1.63;;
36827;SDS011;22766;48.042;11.192;2023-01-19T15:42:51;1.95;;;1.52;;
36827;SDS011;22766;48.042;11.192;2023-01-19T15:48:05;4.68;;;1.95;;
36827;SDS011;22766;48.042;11.192;2023-01-19T15:50:36;4.43;;;1.63;;
36827;SDS011;22766;48.042;11.192;2023-01-19T15:53:05;2.78;;;1.65;;
36827;SDS011;22766;48.042;11.192;2023-01-19T15:55:32;2.33;;;1.50;;
36827;SDS011;22766;48.042;11.192;2023-01-19T15:57:59;2.38;;;1.33;;
36827;SDS011;22766;48.042;11.192;2023-01-19T16:00:29;2.53;;;1.45;;
36827;SDS011;22766;48.042;11.192;2023-01-19T16:02:57;5.75;;;1.80;;
36827;SDS011;22766;48.042;11.192;2023-01-19T16:05:25;2.28;;;1.48;;
36827;SDS011;22766;48.042;11.192;2023-01-19T16:08:07;3.28;;;1.92;;
36827;SDS011;22766;48.042;11.192;2023-01-19T16:10:35;4.28;;;1.48;;
36827;SDS011;22766;48.042;11.192;2023-01-19T16:13:02;4.68;;;1.80;;
36827;SDS011;22766;48.042;11.192;2023-01-19T16:15:29;4.13;;;1.85;;
36827;SDS011;22766;48.042;11.192;2023-01-19T16:17:55;3.78;;;1.90;;
36827;SDS011;22766;48.042;11.192;2023-01-19T16:20:22;3.65;;;2.05;;
36827;SDS011;22766;48.042;11.192;2023-01-19T16:22:48;2.78;;;1.75;;
36827;SDS011;22766;48.042;11.192;2023-01-19T16:25:15;3.28;;;1.70;;
36827;SDS011;22766;48.042;11.192;2023-01-19T16:27:42;5.18;;;2.38;;
36827;SDS011;22766;48.042;11.192;2023-01-19T16:30:11;11.38;;;3.70;;
36827;SDS011;22766;48.042;11.192;2023-01-19T16:32:38;4.30;;;2.35;;
36827;SDS011;22766;48.042;11.192;2023-01-19T16:35:05;3.33;;;1.65;;
36827;SDS011;22766;48.042;11.192;2023-01-19T16:37:32;3.25;;;2.30;;
36827;SDS011;22766;48.042;11.192;2023-01-19T16:39:59;9.25;;;2.42;;
36827;SDS011;22766;48.042;11.192;2023-01-19T16:42:25;3.70;;;2.40;;
36827;SDS011;22766;48.042;11.192;2023-01-19T16:44:55;6.53;;;2.70;;
36827;SDS011;22766;48.042;11.192;2023-01-19T16:47:21;7.43;;;2.00;;
36827;SDS011;22766;48.042;11.192;2023-01-19T16:49:48;6.38;;;2.67;;
36827;SDS011;22766;48.042;11.192;2023-01-19T16:52:15;4.13;;;1.95;;
36827;SDS011;22766;48.042;11.192;2023-01-19T16:54:42;5.60;;;2.28;;